Covington, Kentucky
Current Conditions -  °F | °C
As of 8:53 PM on Friday 28 Nov 2014 (Local Time) from KLUK Reporting Station
Clear Clear  
Wind Chill: 32°   Ceiling: Unl
Heat Index: 32°   Visibility: 10mi
Dew Point: 18°   Wind: 3mph
Humidity: 56%   Direction: 190°S
Pressure: 30.15"   Gusts: NA
Location:  39.08°N, 84.51°W
Report Text: KLUK 290153Z 19003KT 10SM CLR 00/M08 A3015 RMK AO2 SLP214 T00001078
Loading
Personal Weather Stations






























Interactive Weather Map New forecast layout! Learn more

10-Day Weather Forecast

Advertisements
Track Severe Weather on mobile